createdAt,value
2022-12-11T00:02:24.561Z,95339.50
2022-12-11T00:05:26.152Z,95333.31
2022-12-11T00:08:27.723Z,95339.41
2022-12-11T00:11:29.325Z,95337.63
2022-12-11T00:14:31.910Z,95333.56
2022-12-11T00:17:33.472Z,95335.44
2022-12-11T00:20:35.535Z,95341.84
2022-12-11T00:23:38.621Z,95340.06
2022-12-11T00:26:40.250Z,95336.50
2022-12-11T00:29:41.786Z,95346.16
2022-12-11T00:32:44.138Z,95337.44
2022-12-11T00:35:47.154Z,95341.84
2022-12-11T00:38:49.431Z,95343.78
2022-12-11T00:41:50.925Z,95347.25
2022-12-11T00:44:52.487Z,95333.50
2022-12-11T00:47:54.421Z,95335.91
2022-12-11T00:50:55.974Z,95337.81
2022-12-11T00:53:57.518Z,95345.78
2022-12-11T00:56:59.195Z,95349.34
2022-12-11T01:00:00.777Z,95340.63
2022-12-11T01:03:02.665Z,95357.00
2022-12-11T01:06:05.250Z,95351.75
2022-12-11T01:09:25.641Z,95355.22
2022-12-11T01:12:28.603Z,95358.56
2022-12-11T01:15:41.526Z,95350.91
2022-12-11T01:18:43.622Z,95352.91
2022-12-11T01:21:45.144Z,95356.50
2022-12-11T01:24:46.710Z,95349.47
2022-12-11T01:27:50.790Z,95361.75
2022-12-11T01:30:52.415Z,95361.97
2022-12-11T01:33:55.466Z,95368.25
2022-12-11T01:36:57.141Z,95370.38
2022-12-11T01:39:58.771Z,95371.22
2022-12-11T01:43:00.305Z,95368.59
2022-12-11T01:46:01.936Z,95364.41
2022-12-11T01:49:15.300Z,95369.06
2022-12-11T01:52:21.342Z,95382.16
2022-12-11T01:55:23.332Z,95371.78
2022-12-11T01:58:29.727Z,95367.38
2022-12-11T02:01:36.869Z,95364.00
2022-12-11T02:04:40.079Z,95366.63
2022-12-11T02:07:48.668Z,95356.72
2022-12-11T02:11:04.187Z,95380.47
2022-12-11T02:14:17.795Z,95368.09
2022-12-11T02:17:25.993Z,95366.19
2022-12-11T02:20:37.575Z,95366.19
2022-12-11T02:23:47.214Z,95361.09
2022-12-11T02:27:18.208Z,95370.50
2022-12-11T02:30:19.904Z,95370.38
2022-12-11T02:33:29.891Z,95363.47
2022-12-11T02:36:35.809Z,95364.41
2022-12-11T02:39:40.541Z,95370.38
2022-12-11T02:42:44.316Z,95367.75
2022-12-11T02:45:46.914Z,95373.84
2022-12-11T02:48:51.280Z,95364.31
2022-12-11T02:51:56.423Z,95365.97
2022-12-11T02:55:00.903Z,95364.31
2022-12-11T02:58:08.999Z,95365.78
2022-12-11T03:01:10.599Z,95364.94
2022-12-11T03:04:12.253Z,95353.81
2022-12-11T03:07:27.986Z,95362.41
2022-12-11T03:10:29.663Z,95366.81
2022-12-11T03:13:31.618Z,95364.94
2022-12-11T03:16:36.947Z,95375.06
2022-12-11T03:19:50.390Z,95370.88
2022-12-11T03:23:03.194Z,95367.31
2022-12-11T03:26:08.912Z,95366.38
2022-12-11T03:29:19.242Z,95365.53
2022-12-11T03:32:25.603Z,95362.06
2022-12-11T03:35:44.036Z,95369.22
2022-12-11T03:39:15.272Z,95363.16
2022-12-11T03:42:19.174Z,95365.78
2022-12-11T03:45:22.585Z,95363.84
2022-12-11T03:48:30.559Z,95375.28
2022-12-11T03:51:34.079Z,95375.91
2022-12-11T03:54:36.592Z,95375.91
2022-12-11T03:57:38.402Z,95382.00
2022-12-11T04:00:39.982Z,95387.25
2022-12-11T04:03:41.574Z,95380.09
2022-12-11T04:06:43.161Z,95383.69
2022-12-11T04:09:44.692Z,95375.91
2022-12-11T04:12:46.245Z,95377.59
2022-12-11T04:15:47.799Z,95377.69
2022-12-11T04:19:07.809Z,95377.59
2022-12-11T04:22:32.101Z,95374.97
2022-12-11T04:25:33.652Z,95368.03
2022-12-11T04:28:35.856Z,95373.19
2022-12-11T04:31:37.415Z,95373.19
2022-12-11T04:34:40.734Z,95375.69
2022-12-11T04:37:42.655Z,95373.19
2022-12-11T04:40:44.590Z,95370.66
2022-12-11T04:43:46.233Z,95377.81
2022-12-11T04:46:47.840Z,95372.78
2022-12-11T04:49:49.392Z,95367.75
2022-12-11T04:52:50.950Z,95370.50
2022-12-11T04:55:52.586Z,95369.88
2022-12-11T04:58:54.111Z,95365.69
2022-12-11T05:01:55.718Z,95375.03
2022-12-11T05:04:57.287Z,95366.19
2022-12-11T05:07:58.871Z,95367.03
2022-12-11T05:11:03.278Z,95362.75
2022-12-11T05:14:05.433Z,95355.09
2022-12-11T05:17:06.965Z,95364.41
2022-12-11T05:20:09.657Z,95362.63
2022-12-11T05:23:11.477Z,95360.84
2022-12-11T05:26:17.052Z,95353.81
2022-12-11T05:29:18.623Z,95355.50
2022-12-11T05:32:20.150Z,95354.66
2022-12-11T05:35:21.978Z,95361.56
2022-12-11T05:38:24.456Z,95358.97
2022-12-11T05:41:29.855Z,95355.38
2022-12-11T05:44:31.362Z,95364.09
2022-12-11T05:47:32.978Z,95361.69
2022-12-11T05:50:34.533Z,95360.00
2022-12-11T05:53:37.511Z,95357.28
2022-12-11T05:56:39.076Z,95351.66
2022-12-11T05:59:41.322Z,95348.41
2022-12-11T06:02:43.039Z,95347.59
2022-12-11T06:05:45.112Z,95344.13
2022-12-11T06:08:49.885Z,95342.44
2022-12-11T06:11:51.434Z,95336.56
2022-12-11T06:14:53.734Z,95342.44
2022-12-11T06:17:55.373Z,95337.31
2022-12-11T06:20:57.050Z,95324.09
2022-12-11T06:24:01.099Z,95311.94
2022-12-11T06:27:02.678Z,95317.19
2022-12-11T06:30:04.709Z,95327.88
2022-12-11T06:33:06.853Z,95326.19
2022-12-11T06:36:16.515Z,95328.31
2022-12-11T06:39:18.062Z,95344.16
2022-12-11T06:42:19.618Z,95344.50
2022-12-11T06:45:21.168Z,95344.00
2022-12-11T06:48:22.720Z,95349.34
2022-12-11T06:51:24.308Z,95345.97
2022-12-11T06:54:27.446Z,95346.31
2022-12-11T06:57:29.096Z,95346.44
2022-12-11T07:00:31.141Z,95351.66
2022-12-11T07:03:33.533Z,95344.84
2022-12-11T07:06:35.592Z,95338.06
2022-12-11T07:09:39.968Z,95342.91
2022-12-11T07:12:41.530Z,95351.06
2022-12-11T07:15:43.084Z,95349.53
2022-12-11T07:18:48.328Z,95344.00
2022-12-11T07:21:50.079Z,95352.59
2022-12-11T07:24:51.640Z,95359.69
2022-12-11T07:27:53.193Z,95354.56
2022-12-11T07:31:05.714Z,95359.91
2022-12-11T07:34:07.659Z,95359.16
2022-12-11T07:37:09.209Z,95355.84
2022-12-11T07:40:11.095Z,95367.44
2022-12-11T07:43:12.726Z,95371.00
2022-12-11T07:46:21.601Z,95366.63
2022-12-11T07:49:23.171Z,95367.69
2022-12-11T07:52:24.761Z,95367.03
2022-12-11T07:55:26.321Z,95364.41
2022-12-11T07:58:28.563Z,95366.44
2022-12-11T08:01:31.692Z,95362.97
2022-12-11T08:04:33.641Z,95363.06
2022-12-11T08:07:35.849Z,95380.66
2022-12-11T08:10:37.430Z,95379.81
2022-12-11T08:13:40.253Z,95376.34
2022-12-11T08:16:44.133Z,95374.81
2022-12-11T08:19:45.762Z,95382.97
2022-12-11T08:22:47.421Z,95382.13
2022-12-11T08:25:48.978Z,95380.47
2022-12-11T08:28:51.101Z,95379.94
2022-12-11T08:31:52.621Z,95384.97
2022-12-11T08:34:54.215Z,95387.47
2022-12-11T08:37:55.767Z,95382.13
2022-12-11T08:40:57.438Z,95386.53
2022-12-11T08:44:00.420Z,95387.25
2022-12-11T08:47:02.077Z,95391.56
2022-12-11T08:50:04.446Z,95395.09
2022-12-11T08:53:06.004Z,95402.13
2022-12-11T08:56:10.948Z,95401.41
2022-12-11T08:59:12.604Z,95388.41
2022-12-11T09:02:14.412Z,95388.50
2022-12-11T09:05:16.215Z,95397.22
2022-12-11T09:08:18.035Z,95400.56
2022-12-11T09:11:25.739Z,95399.72
2022-12-11T09:14:27.774Z,95395.44
2022-12-11T09:17:29.377Z,95402.34
2022-12-11T09:20:30.904Z,95390.94
2022-12-11T09:23:33.316Z,95395.00
2022-12-11T09:26:34.929Z,95398.38
2022-12-11T09:29:36.478Z,95387.06
2022-12-11T09:32:38.007Z,95392.06
2022-12-11T09:35:39.626Z,95386.97
2022-12-11T09:38:43.999Z,95376.59
2022-12-11T09:41:53.049Z,95388.31
2022-12-11T09:44:58.811Z,95373.53
2022-12-11T09:48:01.962Z,95377.41
2022-12-11T09:51:15.494Z,95377.41
2022-12-11T09:54:17.976Z,95373.03
2022-12-11T09:57:38.000Z,95378.16
2022-12-11T10:01:14.913Z,95380.88
2022-12-11T10:05:00.377Z,95377.22
2022-12-11T10:08:20.503Z,95373.53
2022-12-11T10:11:45.694Z,95363.78
2022-12-11T10:15:12.501Z,95360.00
2022-12-11T10:18:18.078Z,95363.06
2022-12-11T10:21:20.234Z,95351.59
2022-12-11T10:25:12.593Z,95349.63
2022-12-11T10:28:15.337Z,95345.72
2022-12-11T10:31:30.775Z,95347.31
2022-12-11T10:34:40.066Z,95340.50
2022-12-11T10:37:41.645Z,95333.56
2022-12-11T10:40:47.068Z,95336.84
2022-12-11T10:43:50.451Z,95332.53
2022-12-11T10:47:15.395Z,95332.44
2022-12-11T10:50:25.956Z,95326.97
2022-12-11T10:53:29.199Z,95303.94
2022-12-11T10:56:34.015Z,95322.13
2022-12-11T10:59:45.134Z,95323.59
2022-12-11T11:02:46.759Z,95311.94
2022-12-11T11:05:50.573Z,95298.38
2022-12-11T11:08:55.127Z,95293.66
2022-12-11T11:11:56.784Z,95286.28
2022-12-11T11:15:04.123Z,95284.16
2022-12-11T11:18:23.871Z,95286.47
2022-12-11T11:21:26.509Z,95286.94
2022-12-11T11:24:34.897Z,95276.84
2022-12-11T11:28:05.590Z,95281.25
2022-12-11T11:31:10.167Z,95264.69
2022-12-11T11:34:21.024Z,95265.53
2022-12-11T11:37:30.399Z,95266.34
2022-12-11T11:40:38.855Z,95269.47
2022-12-11T11:43:47.709Z,95265.06
2022-12-11T11:46:59.143Z,95266.63
2022-12-11T11:50:21.283Z,95270.94
2022-12-11T11:53:30.449Z,95265.56
2022-12-11T11:56:37.422Z,95267.13
2022-12-11T11:59:49.237Z,95261.03
2022-12-11T12:02:55.923Z,95262.81
2022-12-11T12:06:22.199Z,95249.59
2022-12-11T12:09:43.531Z,95254.84
2022-12-11T12:12:48.108Z,95242.34
2022-12-11T12:16:01.355Z,95252.59
2022-12-11T12:19:08.877Z,95241.88
2022-12-11T12:22:46.729Z,95235.81
2022-12-11T12:26:06.897Z,95233.66
2022-12-11T12:29:35.185Z,95242.97
2022-12-11T12:32:55.256Z,95250.72
2022-12-11T12:36:16.029Z,95251.53
2022-12-11T12:39:28.280Z,95241.06
2022-12-11T12:42:35.969Z,95242.84
2022-12-11T12:45:55.127Z,95241.06
2022-12-11T12:49:02.371Z,95239.25
2022-12-11T12:52:14.964Z,95237.59
2022-12-11T12:55:28.950Z,95234.13
2022-12-11T12:58:39.853Z,95229.72
2022-12-11T13:01:48.311Z,95215.41
2022-12-11T13:05:07.489Z,95241.88
2022-12-11T13:08:10.922Z,95242.00
2022-12-11T13:11:17.118Z,95238.44
2022-12-11T13:14:18.854Z,95245.34
2022-12-11T13:17:20.316Z,95247.75
2022-12-11T13:20:25.066Z,95242.25
2022-12-11T13:23:32.435Z,95243.81
2022-12-11T13:26:34.364Z,95245.81
2022-12-11T13:29:41.706Z,95240.34
2022-12-11T13:32:54.981Z,95238.44
2022-12-11T13:36:17.774Z,95254.06
2022-12-11T13:39:30.602Z,95250.72
2022-12-11T13:42:36.110Z,95250.84
2022-12-11T13:45:48.836Z,95246.66
2022-12-11T13:48:57.285Z,95249.63
2022-12-11T13:52:00.218Z,95247.81
2022-12-11T13:55:02.306Z,95247.13
2022-12-11T13:58:03.884Z,95237.34
2022-12-11T14:01:17.024Z,95242.84
2022-12-11T14:04:21.855Z,95237.47
2022-12-11T14:07:28.845Z,95244.50
2022-12-11T14:10:35.187Z,95237.69
2022-12-11T14:13:40.420Z,95244.50
2022-12-11T14:16:42.501Z,95240.41
2022-12-11T14:19:48.561Z,95246.50
2022-12-11T14:22:50.760Z,95240.41
2022-12-11T14:26:01.335Z,95234.34
2022-12-11T14:29:03.118Z,95234.59
2022-12-11T14:32:07.354Z,95242.34
2022-12-11T14:35:26.453Z,95234.22
2022-12-11T14:38:43.062Z,95245.19
2022-12-11T14:41:57.379Z,95245.53
2022-12-11T14:45:28.078Z,95246.13
2022-12-11T14:48:36.051Z,95252.69
2022-12-11T14:51:41.034Z,95258.75
2022-12-11T14:54:51.213Z,95250.91
2022-12-11T14:58:07.591Z,95251.38
2022-12-11T15:01:28.292Z,95261.00
2022-12-11T15:04:32.510Z,95251.56
2022-12-11T15:07:34.263Z,95254.31
2022-12-11T15:10:41.131Z,95261.34
2022-12-11T15:13:58.623Z,95262.16
2022-12-11T15:17:00.501Z,95264.94
2022-12-11T15:20:22.549Z,95267.88
2022-12-11T15:23:24.199Z,95255.84
2022-12-11T15:26:44.233Z,95251.66
2022-12-11T15:29:45.859Z,95260.47
2022-12-11T15:32:48.752Z,95243.72
2022-12-11T15:36:07.341Z,95260.56
2022-12-11T15:39:09.430Z,95253.91
2022-12-11T15:42:15.052Z,95254.63
2022-12-11T15:45:22.208Z,95256.41
2022-12-11T15:48:24.409Z,95260.91
2022-12-11T15:51:27.440Z,95265.22
2022-12-11T15:54:29.089Z,95271.28
2022-12-11T15:57:30.826Z,95269.63
2022-12-11T16:00:32.505Z,95271.41
2022-12-11T16:03:34.061Z,95274.75
2022-12-11T16:06:35.747Z,95273.19
2022-12-11T16:09:37.345Z,95289.00
2022-12-11T16:12:39.856Z,95279.47
2022-12-11T16:15:47.742Z,95284.84
2022-12-11T16:18:49.873Z,95289.47
2022-12-11T16:21:52.534Z,95276.72
2022-12-11T16:24:55.081Z,95298.91
2022-12-11T16:27:58.074Z,95289.38
2022-12-11T16:30:59.668Z,95293.66
2022-12-11T16:34:01.284Z,95284.22
2022-12-11T16:37:03.666Z,95284.22
2022-12-11T16:40:06.653Z,95295.66
2022-12-11T16:43:08.443Z,95286.13
2022-12-11T16:46:10.081Z,95288.97
2022-12-11T16:49:11.700Z,95287.31
2022-12-11T16:52:17.578Z,95287.19
2022-12-11T16:55:22.187Z,95286.56
2022-12-11T16:58:23.847Z,95290.03
2022-12-11T17:01:25.810Z,95300.50
2022-12-11T17:04:28.629Z,95292.63
2022-12-11T17:07:32.021Z,95298.81
2022-12-11T17:10:33.946Z,95298.09
2022-12-11T17:13:36.479Z,95296.44
2022-12-11T17:16:38.294Z,95291.06
2022-12-11T17:19:40.060Z,95302.28
2022-12-11T17:22:42.123Z,95303.13
2022-12-11T17:25:45.445Z,95294.75
2022-12-11T17:28:47.617Z,95299.47
2022-12-11T17:31:56.482Z,95306.53
2022-12-11T17:34:58.041Z,95304.84
2022-12-11T17:37:59.837Z,95308.31
2022-12-11T17:41:05.894Z,95300.66
2022-12-11T17:44:07.432Z,95303.19
2022-12-11T17:47:11.918Z,95304.13
2022-12-11T17:50:13.732Z,95302.69
2022-12-11T17:53:16.326Z,95316.47
2022-12-11T17:56:19.553Z,95303.50
2022-12-11T17:59:21.142Z,95302.69
2022-12-11T18:02:22.766Z,95316.59
2022-12-11T18:05:25.193Z,95308.88
2022-12-11T18:08:30.104Z,95313.16
2022-12-11T18:11:32.826Z,95318.59
2022-12-11T18:14:34.578Z,95306.44
2022-12-11T18:17:36.170Z,95311.09
2022-12-11T18:20:38.693Z,95317.38
2022-12-11T18:23:40.379Z,95307.09
2022-12-11T18:26:47.892Z,95309.72
2022-12-11T18:29:49.722Z,95310.69
2022-12-11T18:32:51.570Z,95317.81
2022-12-11T18:35:53.153Z,95320.41
2022-12-11T18:38:54.838Z,95327.44
2022-12-11T18:42:24.270Z,95318.00
2022-12-11T18:45:18.030Z,95321.56
2022-12-11T18:48:19.599Z,95327.03
2022-12-11T18:51:23.857Z,95333.22
2022-12-11T18:54:25.456Z,95330.69
2022-12-11T18:57:27.029Z,95338.66
2022-12-11T19:00:28.605Z,95333.53
2022-12-11T19:03:30.224Z,95331.97
2022-12-11T19:06:33.302Z,95320.84
2022-12-11T19:09:42.427Z,95328.72
2022-12-11T19:12:49.755Z,95330.50
2022-12-11T19:15:51.448Z,95337.84
2022-12-11T19:18:53.070Z,95330.09
2022-12-11T19:21:54.844Z,95331.06
2022-12-11T19:24:56.392Z,95331.16
2022-12-11T19:27:58.106Z,95331.34
2022-12-11T19:31:48.551Z,95316.41
2022-12-11T19:47:18.356Z,95331.13
2022-12-11T19:50:47.544Z,95327.72
2022-12-11T19:55:09.032Z,95335.97
2022-12-11T20:03:43.433Z,95322.59
2022-12-11T20:07:25.024Z,95330.00
2022-12-11T20:10:57.991Z,95325.81
2022-12-11T20:14:56.159Z,95335.13
2022-12-11T20:26:50.275Z,95319.44
2022-12-11T20:34:35.092Z,95322.03
2022-12-11T20:37:49.745Z,95314.41
2022-12-11T20:41:08.624Z,95316.94
2022-12-11T20:44:33.563Z,95341.59
2022-12-11T20:47:51.844Z,95307.84
2022-12-11T20:51:22.421Z,95334.81
2022-12-11T20:55:05.995Z,95334.00
2022-12-11T20:58:55.411Z,95317.47
2022-12-11T21:02:14.052Z,95341.09
2022-12-11T21:05:48.409Z,95331.06
2022-12-11T21:13:12.248Z,95319.25
2022-12-11T21:16:46.569Z,95343.63
2022-12-11T21:24:24.338Z,95319.25
2022-12-11T21:27:55.149Z,95346.34
2022-12-11T21:31:38.712Z,95320.19
2022-12-11T21:35:06.330Z,95333.34
2022-12-11T21:38:28.565Z,95316.41
2022-12-11T21:54:02.112Z,95340.06
2022-12-11T21:57:29.887Z,95323.31
2022-12-11T22:04:45.154Z,95338.81
2022-12-11T22:12:11.256Z,95316.91
2022-12-11T22:15:41.681Z,95315.25
2022-12-11T22:18:57.301Z,95324.56
2022-12-11T22:22:54.895Z,95329.72
2022-12-11T22:26:00.797Z,95337.75
2022-12-11T22:29:02.875Z,95327.28
2022-12-11T22:32:05.074Z,95333.97
2022-12-11T22:35:07.346Z,95338.38
2022-12-11T22:38:09.357Z,95321.91
2022-12-11T22:41:22.893Z,95311.69
2022-12-11T22:44:54.989Z,95328.31
2022-12-11T22:48:12.694Z,95330.09
2022-12-11T22:51:32.915Z,95307.69
2022-12-11T22:54:44.453Z,95316.16
2022-12-11T23:02:10.328Z,95333.63
2022-12-11T23:05:24.646Z,95326.19
2022-12-11T23:08:31.658Z,95321.81
2022-12-11T23:11:49.331Z,95334.06
2022-12-11T23:15:03.143Z,95331.75
2022-12-11T23:18:11.889Z,95312.81
2022-12-11T23:21:18.850Z,95302.78
2022-12-11T23:31:48.685Z,95316.69
2022-12-11T23:35:07.162Z,95333.44
2022-12-11T23:38:23.989Z,95335.22
2022-12-11T23:41:39.232Z,95343.69
2022-12-11T23:44:58.232Z,95345.16
2022-12-11T23:48:03.068Z,95333.44
2022-12-11T23:51:32.035Z,95347.97
2022-12-11T23:54:49.158Z,95357.81
2022-12-11T23:58:00.354Z,95340.13
